createdAt,value
2017-09-11T00:01:08.209Z,14.90
2017-09-11T00:03:35.710Z,14.90
2017-09-11T00:06:03.271Z,14.90
2017-09-11T00:08:30.820Z,14.90
2017-09-11T00:10:58.391Z,14.90
2017-09-11T00:13:26.002Z,14.90
2017-09-11T00:15:53.474Z,14.90
2017-09-11T00:18:20.950Z,14.90
2017-09-11T00:20:48.408Z,14.90
2017-09-11T00:23:15.870Z,14.90
2017-09-11T00:25:43.424Z,14.80
2017-09-11T00:28:11.659Z,14.80
2017-09-11T00:30:39.130Z,14.70
2017-09-11T00:33:06.602Z,14.80
2017-09-11T00:35:34.084Z,14.80
2017-09-11T00:38:02.328Z,14.80
2017-09-11T00:40:29.904Z,14.70
2017-09-11T00:42:57.375Z,14.80
2017-09-11T00:45:24.921Z,14.70
2017-09-11T00:47:52.398Z,14.70
2017-09-11T00:50:20.658Z,14.70
2017-09-11T00:52:48.117Z,14.60
2017-09-11T00:55:15.690Z,14.70
2017-09-11T00:57:43.939Z,14.60
2017-09-11T01:00:11.477Z,14.60
2017-09-11T01:02:38.949Z,14.70
2017-09-11T01:05:06.412Z,14.60
2017-09-11T01:07:34.713Z,14.60
2017-09-11T01:10:02.948Z,14.50
2017-09-11T01:12:30.423Z,14.40
2017-09-11T01:14:57.887Z,14.50
2017-09-11T01:17:25.442Z,14.50
2017-09-11T01:19:52.919Z,14.50
2017-09-11T01:22:21.234Z,14.40
2017-09-11T01:24:48.689Z,14.40
2017-09-11T01:27:16.167Z,14.40
2017-09-11T01:29:43.640Z,14.40
2017-09-11T01:32:11.097Z,14.20
2017-09-11T01:34:38.580Z,14.10
2017-09-11T01:37:06.824Z,14.20
2017-09-11T01:39:34.288Z,14.10
2017-09-11T01:42:01.849Z,14.20
2017-09-11T01:44:29.324Z,14.30
2017-09-11T01:46:57.585Z,14.20
2017-09-11T01:49:25.132Z,14.20
2017-09-11T01:51:52.690Z,14.30
2017-09-11T01:54:20.147Z,14.30
2017-09-11T01:56:47.624Z,14.30
2017-09-11T01:59:15.849Z,14.30
2017-09-11T02:01:43.403Z,14.20
2017-09-11T02:04:10.854Z,14.30
2017-09-11T02:06:38.344Z,14.30
2017-09-11T02:09:05.805Z,14.20
2017-09-11T02:11:33.262Z,14.20
2017-09-11T02:14:00.837Z,14.20
2017-09-11T02:16:28.306Z,14.20
2017-09-11T02:18:56.536Z,14.20
2017-09-11T02:21:24.009Z,14.20
2017-09-11T02:23:51.569Z,14.30
2017-09-11T02:26:19.147Z,14.30
2017-09-11T02:28:46.683Z,14.20
2017-09-11T02:31:14.265Z,14.20
2017-09-11T02:33:41.804Z,14.20
2017-09-11T02:36:09.327Z,14.20
2017-09-11T02:38:36.798Z,14.20
2017-09-11T02:41:04.265Z,14.20
2017-09-11T02:43:31.725Z,14.20
2017-09-11T02:45:59.184Z,14.10
2017-09-11T02:48:26.711Z,14.10
2017-09-11T02:50:54.175Z,14.10
2017-09-11T02:53:21.652Z,14.10
2017-09-11T02:55:49.109Z,14.10
2017-09-11T02:58:16.572Z,14.10
2017-09-11T03:00:44.036Z,14.10
2017-09-11T03:03:11.506Z,14.10
2017-09-11T03:05:39.733Z,14.10
2017-09-11T03:08:07.200Z,14.00
2017-09-11T03:10:34.657Z,14.00
2017-09-11T03:13:02.142Z,14.00
2017-09-11T03:15:29.614Z,13.90
2017-09-11T03:17:57.883Z,13.90
2017-09-11T03:20:26.148Z,13.90
2017-09-11T03:22:53.710Z,13.90
2017-09-11T03:25:21.265Z,13.90
2017-09-11T03:27:48.826Z,13.90
2017-09-11T03:30:16.455Z,14.00
2017-09-11T03:32:43.934Z,13.80
2017-09-11T03:35:11.506Z,13.80
2017-09-11T03:37:39.746Z,13.90
2017-09-11T03:40:07.222Z,13.80
2017-09-11T03:42:34.699Z,13.80
2017-09-11T03:45:02.938Z,13.90
2017-09-11T03:47:30.416Z,13.80
2017-09-11T03:49:58.659Z,14.00
2017-09-11T03:52:26.131Z,13.90
2017-09-11T03:54:53.609Z,13.90
2017-09-11T03:57:21.070Z,13.90
2017-09-11T03:59:49.346Z,13.90
2017-09-11T04:02:17.572Z,13.90
2017-09-11T04:04:45.065Z,13.80
2017-09-11T04:07:12.630Z,13.90
2017-09-11T04:09:40.093Z,13.90
2017-09-11T04:12:07.580Z,13.90
2017-09-11T04:14:35.104Z,13.90
2017-09-11T04:17:02.676Z,13.90
2017-09-11T04:19:31.038Z,13.90
2017-09-11T04:21:58.614Z,13.80
2017-09-11T04:24:26.859Z,13.90
2017-09-11T04:26:54.340Z,13.90
2017-09-11T04:29:22.658Z,13.90
2017-09-11T04:31:50.217Z,13.90
2017-09-11T04:34:17.888Z,14.00
2017-09-11T04:36:45.352Z,13.90
2017-09-11T04:39:12.840Z,13.90
2017-09-11T04:41:40.304Z,13.90
2017-09-11T04:44:08.579Z,13.90
2017-09-11T04:46:36.138Z,13.90
2017-09-11T04:49:03.597Z,13.90
2017-09-11T04:51:31.877Z,13.90
2017-09-11T04:54:00.112Z,14.00
2017-09-11T04:56:27.706Z,13.90
2017-09-11T04:58:55.253Z,13.90
2017-09-11T05:01:22.709Z,14.00
2017-09-11T05:03:50.184Z,14.00
2017-09-11T05:06:18.420Z,14.10
2017-09-11T05:08:45.887Z,14.10
2017-09-11T05:11:13.358Z,14.10
2017-09-11T05:13:40.818Z,14.10
2017-09-11T05:16:08.372Z,14.10
2017-09-11T05:18:35.932Z,14.20
2017-09-11T05:21:03.496Z,14.20
2017-09-11T05:23:31.736Z,14.30
2017-09-11T05:25:59.226Z,14.20
2017-09-11T05:28:26.702Z,14.30
2017-09-11T05:30:54.161Z,14.30
2017-09-11T05:33:22.411Z,14.20
2017-09-11T05:35:49.889Z,14.20
2017-09-11T05:38:18.123Z,14.10
2017-09-11T05:40:45.603Z,14.00
2017-09-11T05:43:13.075Z,14.20
2017-09-11T05:45:40.533Z,14.30
2017-09-11T05:48:07.999Z,14.30
2017-09-11T05:50:36.278Z,14.60
2017-09-11T05:53:03.750Z,14.50
2017-09-11T05:55:31.209Z,14.60
2017-09-11T05:57:58.673Z,14.70
2017-09-11T06:00:26.174Z,14.60
2017-09-11T06:02:53.632Z,14.60
2017-09-11T06:05:21.203Z,14.70
2017-09-11T06:07:49.489Z,14.80
2017-09-11T06:10:17.746Z,14.90
2017-09-11T06:12:45.297Z,14.90
2017-09-11T06:15:13.633Z,15.10
2017-09-11T06:17:41.132Z,15.10
2017-09-11T06:20:08.594Z,15.10
2017-09-11T06:22:36.146Z,15.10
2017-09-11T06:25:03.627Z,15.20
2017-09-11T06:27:31.857Z,15.30
2017-09-11T06:29:59.342Z,15.20
2017-09-11T06:32:26.818Z,15.30
2017-09-11T06:34:54.298Z,15.60
2017-09-11T06:37:21.967Z,15.80
2017-09-11T06:39:49.429Z,15.80
2017-09-11T06:42:16.883Z,15.90
2017-09-11T06:44:44.350Z,16.10
2017-09-11T06:47:11.829Z,16.10
2017-09-11T06:49:39.299Z,16.10
2017-09-11T06:52:06.856Z,16.10
2017-09-11T06:54:34.405Z,16.00
2017-09-11T06:57:01.972Z,16.00
2017-09-11T06:59:29.485Z,16.00
2017-09-11T07:01:56.957Z,16.00
2017-09-11T07:04:24.417Z,16.10
2017-09-11T07:06:51.901Z,16.10
2017-09-11T07:09:19.456Z,16.10
2017-09-11T07:11:46.925Z,16.10
2017-09-11T07:14:15.179Z,16.50
2017-09-11T07:16:42.642Z,16.40
2017-09-11T07:19:10.117Z,16.60
2017-09-11T07:21:38.398Z,16.80
2017-09-11T07:24:06.648Z,16.80
2017-09-11T07:26:34.272Z,16.70
2017-09-11T07:29:01.741Z,16.80
2017-09-11T07:31:29.238Z,16.70
2017-09-11T07:33:56.705Z,16.90
2017-09-11T07:36:24.943Z,17.20
2017-09-11T07:38:52.543Z,17.10
2017-09-11T07:41:20.784Z,17.30
2017-09-11T07:43:49.126Z,17.20
2017-09-11T07:46:16.599Z,17.20
2017-09-11T07:48:44.074Z,17.20
2017-09-11T07:51:11.652Z,17.20
2017-09-11T07:53:39.119Z,17.30
2017-09-11T07:56:07.362Z,17.30
2017-09-11T07:58:34.934Z,17.20
2017-09-11T08:01:02.551Z,17.40
2017-09-11T08:03:30.009Z,17.40
2017-09-11T08:05:57.500Z,17.40
2017-09-11T08:08:25.057Z,17.30
2017-09-11T08:10:52.517Z,17.30
2017-09-11T08:13:19.976Z,17.50
2017-09-11T08:15:47.436Z,17.70
2017-09-11T08:18:14.889Z,17.90
2017-09-11T08:20:42.383Z,17.80
2017-09-11T08:23:09.837Z,17.90
2017-09-11T08:25:37.296Z,18.00
2017-09-11T08:28:04.754Z,17.90
2017-09-11T08:30:32.287Z,17.90
2017-09-11T08:32:59.755Z,18.00
2017-09-11T08:35:27.988Z,18.10
2017-09-11T08:37:55.471Z,18.00
2017-09-11T08:40:23.018Z,18.10
2017-09-11T08:42:50.477Z,18.00
2017-09-11T08:45:18.033Z,18.10
2017-09-11T08:47:45.489Z,18.20
2017-09-11T08:50:12.955Z,18.40
2017-09-11T08:52:40.417Z,18.40
2017-09-11T08:55:07.981Z,18.30
2017-09-11T08:57:36.205Z,18.20
2017-09-11T09:00:03.718Z,18.20
2017-09-11T09:02:32.032Z,18.20
2017-09-11T09:04:59.500Z,18.20
2017-09-11T09:07:26.990Z,18.20
2017-09-11T09:09:54.604Z,18.10
2017-09-11T09:12:22.071Z,18.30
2017-09-11T09:14:49.535Z,18.70
2017-09-11T09:17:16.996Z,18.70
2017-09-11T09:19:44.459Z,18.80
2017-09-11T09:22:11.917Z,18.80
2017-09-11T09:24:39.379Z,18.70
2017-09-11T09:27:06.843Z,18.80
2017-09-11T09:29:34.289Z,18.80
2017-09-11T09:32:01.875Z,18.80
2017-09-11T09:34:29.408Z,18.90
2017-09-11T09:36:56.884Z,19.00
2017-09-11T09:39:24.447Z,19.10
2017-09-11T09:41:51.947Z,19.00
2017-09-11T09:44:19.629Z,18.90
2017-09-11T09:46:47.126Z,18.90
2017-09-11T09:49:15.552Z,19.10
2017-09-11T09:51:43.248Z,19.10
2017-09-11T09:54:10.877Z,19.20
2017-09-11T09:56:38.845Z,19.40
2017-09-11T09:59:06.353Z,19.30
2017-09-11T10:01:33.818Z,19.40
2017-09-11T10:04:02.229Z,19.70
2017-09-11T10:06:30.526Z,20.00
2017-09-11T10:08:58.019Z,19.90
2017-09-11T10:11:25.473Z,20.20
2017-09-11T10:13:53.718Z,20.60
2017-09-11T10:16:21.211Z,20.50
2017-09-11T10:18:49.438Z,20.80
2017-09-11T10:21:16.889Z,20.80
2017-09-11T10:23:44.382Z,20.60
2017-09-11T10:26:11.847Z,20.50
2017-09-11T10:28:40.087Z,20.70
2017-09-11T10:31:07.578Z,20.60
2017-09-11T10:33:35.825Z,20.90
2017-09-11T10:36:03.361Z,20.90
2017-09-11T10:38:30.820Z,21.30
2017-09-11T10:40:58.337Z,21.50
2017-09-11T10:43:26.570Z,21.20
2017-09-11T10:45:54.051Z,21.20
2017-09-11T10:48:21.521Z,21.10
2017-09-11T10:50:49.794Z,20.90
2017-09-11T10:53:17.268Z,20.80
2017-09-11T10:55:45.498Z,20.60
2017-09-11T10:58:13.028Z,20.50
2017-09-11T11:00:40.486Z,20.50
2017-09-11T11:03:07.995Z,20.50
2017-09-11T11:05:35.445Z,20.40
2017-09-11T11:08:03.008Z,20.50
2017-09-11T11:10:30.508Z,20.50
2017-09-11T11:12:57.975Z,20.40
2017-09-11T11:15:25.478Z,20.40
2017-09-11T11:17:53.039Z,20.40
2017-09-11T11:20:20.602Z,20.40
2017-09-11T11:22:48.924Z,20.50
2017-09-11T11:25:16.585Z,20.50
2017-09-11T11:27:44.037Z,20.60
2017-09-11T11:30:11.550Z,20.70
2017-09-11T11:32:39.023Z,20.90
2017-09-11T11:35:07.280Z,21.10
2017-09-11T11:37:34.835Z,21.00
2017-09-11T11:40:02.585Z,21.10
2017-09-11T11:42:30.040Z,21.00
2017-09-11T11:45:31.169Z,20.80
2017-09-11T11:47:58.637Z,20.80
2017-09-11T11:50:26.118Z,20.60
2017-09-11T11:52:53.946Z,20.40
2017-09-11T11:55:21.541Z,20.30
2017-09-11T11:57:49.085Z,20.30
2017-09-11T12:00:16.544Z,20.30
2017-09-11T12:02:44.010Z,20.40
2017-09-11T12:05:11.500Z,20.30
2017-09-11T12:07:39.743Z,20.10
2017-09-11T12:10:07.212Z,20.10
2017-09-11T12:12:34.708Z,20.10
2017-09-11T12:15:02.363Z,20.10
2017-09-11T12:17:29.956Z,20.00
2017-09-11T12:19:57.583Z,20.00
2017-09-11T12:22:25.041Z,19.90
2017-09-11T12:24:52.509Z,19.90
2017-09-11T12:27:19.987Z,19.80
2017-09-11T12:29:47.476Z,19.70
2017-09-11T12:32:14.942Z,19.80
2017-09-11T12:34:43.176Z,19.50
2017-09-11T12:37:10.745Z,19.50
2017-09-11T12:39:38.306Z,19.50
2017-09-11T12:42:05.776Z,19.60
2017-09-11T12:44:34.050Z,19.70
2017-09-11T12:47:02.321Z,19.70
2017-09-11T12:49:29.871Z,19.60
2017-09-11T12:51:57.445Z,19.70
2017-09-11T12:54:24.924Z,19.60
2017-09-11T12:56:53.145Z,19.50
2017-09-11T12:59:20.625Z,19.50
2017-09-11T13:01:48.186Z,19.40
2017-09-11T13:04:15.649Z,19.30
2017-09-11T13:06:43.122Z,19.10
2017-09-11T13:09:11.356Z,18.90
2017-09-11T13:11:38.884Z,18.90
2017-09-11T13:14:06.358Z,18.90
2017-09-11T13:16:33.823Z,18.90
2017-09-11T13:19:01.393Z,19.00
2017-09-11T13:21:28.854Z,19.10
2017-09-11T13:23:57.925Z,19.30
2017-09-11T13:26:25.421Z,19.30
2017-09-11T13:28:53.682Z,19.50
2017-09-11T13:31:21.161Z,19.40
2017-09-11T13:33:49.478Z,19.90
2017-09-11T13:36:16.933Z,19.90
2017-09-11T13:38:44.401Z,20.30
2017-09-11T13:41:12.167Z,20.60
2017-09-11T13:43:39.628Z,20.50
2017-09-11T13:46:07.109Z,20.40
2017-09-11T13:48:34.684Z,20.60
2017-09-11T13:51:02.916Z,20.80
2017-09-11T13:53:30.406Z,20.70
2017-09-11T13:55:57.957Z,20.70
2017-09-11T13:58:25.430Z,20.80
2017-09-11T14:00:53.653Z,20.40
2017-09-11T14:03:21.121Z,20.30
2017-09-11T14:05:48.581Z,20.10
2017-09-11T14:08:16.047Z,19.90
2017-09-11T14:10:43.505Z,19.80
2017-09-11T14:13:11.132Z,19.80
2017-09-11T14:15:38.633Z,19.70
2017-09-11T14:18:06.098Z,19.60
2017-09-11T14:20:33.658Z,19.50
2017-09-11T14:23:01.114Z,19.50
2017-09-11T14:25:29.013Z,19.70
2017-09-11T14:27:56.437Z,19.90
2017-09-11T14:30:23.981Z,19.80
2017-09-11T14:32:51.540Z,19.60
2017-09-11T14:35:19.765Z,19.50
2017-09-11T14:37:47.239Z,19.50
2017-09-11T14:40:14.772Z,19.50
2017-09-11T14:42:42.236Z,19.50
2017-09-11T14:45:09.710Z,19.40
2017-09-11T14:47:37.175Z,19.40
2017-09-11T14:50:04.629Z,19.40
2017-09-11T14:52:32.099Z,19.30
2017-09-11T14:54:59.562Z,19.20
2017-09-11T14:57:27.021Z,19.20
2017-09-11T14:59:54.598Z,19.20
2017-09-11T15:02:22.056Z,19.10
2017-09-11T15:04:49.510Z,19.10
2017-09-11T15:07:16.982Z,19.10
2017-09-11T15:09:45.229Z,19.10
2017-09-11T15:12:12.689Z,19.00
2017-09-11T15:14:40.922Z,19.00
2017-09-11T15:17:08.434Z,18.90
2017-09-11T15:19:36.755Z,18.90
2017-09-11T15:22:04.370Z,18.90
2017-09-11T15:24:31.859Z,18.90
2017-09-11T15:26:59.339Z,18.90
2017-09-11T15:29:26.819Z,18.90
2017-09-11T15:31:54.291Z,18.80
2017-09-11T15:34:21.745Z,18.90
2017-09-11T15:36:50.724Z,18.90
2017-09-11T15:39:18.186Z,18.90
2017-09-11T15:41:45.766Z,19.00
2017-09-11T15:44:14.031Z,18.90
2017-09-11T15:46:43.076Z,18.90
2017-09-11T15:49:10.583Z,18.90
2017-09-11T15:51:38.040Z,19.00
2017-09-11T15:54:05.506Z,19.00
2017-09-11T15:56:32.991Z,19.00
2017-09-11T15:59:00.446Z,19.00
2017-09-11T16:01:27.922Z,19.10
2017-09-11T16:03:55.422Z,19.00
2017-09-11T16:06:22.976Z,19.00
2017-09-11T16:08:50.544Z,18.90
2017-09-11T16:11:18.037Z,18.80
2017-09-11T16:13:45.505Z,18.80
2017-09-11T16:16:12.969Z,18.80
2017-09-11T16:18:40.466Z,18.80
2017-09-11T16:21:08.746Z,20.20
2017-09-11T16:23:36.263Z,20.20
2017-09-11T16:26:03.820Z,20.70
2017-09-11T16:28:31.284Z,20.70
2017-09-11T16:30:58.757Z,20.70
2017-09-11T16:33:27.045Z,20.10
2017-09-11T16:35:54.495Z,20.10
2017-09-11T16:38:22.024Z,20.00
2017-09-11T16:40:49.527Z,19.70
2017-09-11T16:43:16.992Z,19.50
2017-09-11T16:45:45.253Z,19.30
2017-09-11T16:48:12.716Z,19.30
2017-09-11T16:50:40.191Z,19.20
2017-09-11T16:53:08.439Z,19.10
2017-09-11T16:55:35.995Z,19.10
2017-09-11T16:58:03.472Z,19.10
2017-09-11T17:00:31.703Z,19.10
2017-09-11T17:02:59.179Z,19.10
2017-09-11T17:05:26.744Z,19.00
2017-09-11T17:07:55.077Z,19.00
2017-09-11T17:10:22.549Z,18.90
2017-09-11T17:12:50.047Z,18.90
2017-09-11T17:15:17.594Z,18.80
2017-09-11T17:17:45.155Z,18.70
2017-09-11T17:20:12.633Z,18.60
2017-09-11T17:22:40.943Z,18.70
2017-09-11T17:25:08.403Z,18.60
2017-09-11T17:27:35.878Z,18.70
2017-09-11T17:30:03.334Z,18.60
2017-09-11T17:32:30.802Z,18.50
2017-09-11T17:34:58.261Z,18.50
2017-09-11T17:37:25.720Z,18.50
2017-09-11T17:39:53.177Z,18.40
2017-09-11T17:42:20.647Z,18.40
2017-09-11T17:44:48.098Z,18.30
2017-09-11T17:47:16.426Z,18.50
2017-09-11T17:49:43.880Z,18.50
2017-09-11T17:52:11.404Z,18.50
2017-09-11T17:54:39.663Z,18.50
2017-09-11T17:57:07.227Z,18.50
2017-09-11T17:59:34.779Z,18.50
2017-09-11T18:02:03.009Z,18.40
2017-09-11T18:04:30.505Z,18.40
2017-09-11T18:06:57.975Z,18.40
2017-09-11T18:09:25.450Z,18.50
2017-09-11T18:11:53.687Z,18.40
2017-09-11T18:14:21.171Z,18.30
2017-09-11T18:16:49.404Z,18.40
2017-09-11T18:19:16.872Z,18.30
2017-09-11T18:21:44.343Z,18.30
2017-09-11T18:24:11.802Z,18.20
2017-09-11T18:26:39.477Z,18.30
2017-09-11T18:29:06.937Z,18.20
2017-09-11T18:31:35.276Z,18.10
2017-09-11T18:34:02.755Z,18.10
2017-09-11T18:36:30.982Z,18.00
2017-09-11T18:38:58.489Z,17.90
2017-09-11T18:41:25.954Z,18.00
2017-09-11T18:43:53.431Z,18.00
2017-09-11T18:46:20.904Z,17.90
2017-09-11T18:48:48.461Z,17.80
2017-09-11T18:51:15.987Z,17.80
2017-09-11T18:53:44.269Z,17.80
2017-09-11T18:56:12.681Z,17.80
2017-09-11T18:58:40.170Z,17.70
2017-09-11T19:01:07.706Z,17.70
2017-09-11T19:03:35.160Z,17.70
2017-09-11T19:06:02.694Z,17.70
2017-09-11T19:08:30.177Z,17.70
2017-09-11T19:10:57.675Z,17.70
2017-09-11T19:13:25.195Z,17.80
2017-09-11T19:15:52.658Z,17.80
2017-09-11T19:18:20.177Z,17.80
2017-09-11T19:20:48.472Z,17.80
2017-09-11T19:23:15.959Z,17.70
2017-09-11T19:25:43.432Z,17.80
2017-09-11T19:28:11.701Z,17.80
2017-09-11T19:30:39.195Z,17.80
2017-09-11T19:33:07.436Z,17.70
2017-09-11T19:35:34.901Z,17.60
2017-09-11T19:38:03.860Z,17.60
2017-09-11T19:40:31.400Z,17.60
2017-09-11T19:42:58.848Z,17.60
2017-09-11T19:45:26.326Z,17.50
2017-09-11T19:47:53.811Z,17.40
2017-09-11T19:50:21.287Z,17.50
2017-09-11T19:52:48.745Z,17.40
2017-09-11T19:55:16.970Z,17.40
2017-09-11T19:57:44.451Z,17.30
2017-09-11T20:00:12.031Z,17.30
2017-09-11T20:02:39.494Z,17.20
2017-09-11T20:05:07.739Z,16.90
2017-09-11T20:07:35.205Z,16.80
2017-09-11T20:10:02.686Z,16.80
2017-09-11T20:12:30.922Z,16.60
2017-09-11T20:14:58.385Z,16.60
2017-09-11T20:17:25.847Z,16.70
2017-09-11T20:19:53.329Z,16.60
2017-09-11T20:22:21.590Z,16.50
2017-09-11T20:24:49.137Z,16.40
2017-09-11T20:27:16.629Z,16.40
2017-09-11T20:29:44.158Z,16.40
2017-09-11T20:32:11.718Z,16.30
2017-09-11T20:34:39.186Z,16.30
2017-09-11T20:37:06.735Z,16.30
2017-09-11T20:39:34.201Z,16.30
2017-09-11T20:42:02.424Z,16.20
2017-09-11T20:44:29.926Z,16.10
2017-09-11T20:46:57.404Z,16.10
2017-09-11T20:49:25.633Z,16.00
2017-09-11T20:51:53.167Z,16.00
2017-09-11T20:54:20.640Z,15.90
2017-09-11T20:56:48.123Z,15.90
2017-09-11T20:59:15.676Z,15.90
2017-09-11T21:01:43.153Z,15.80
2017-09-11T21:04:11.408Z,15.70
2017-09-11T21:06:38.879Z,15.70
2017-09-11T21:09:06.366Z,15.60
2017-09-11T21:11:33.955Z,15.70
2017-09-11T21:14:02.263Z,15.60
2017-09-11T21:16:29.851Z,15.50
2017-09-11T21:18:57.285Z,15.60
2017-09-11T21:21:24.756Z,15.60
2017-09-11T21:23:53.024Z,15.40
2017-09-11T21:26:21.252Z,15.40
2017-09-11T21:28:48.807Z,15.30
2017-09-11T21:31:16.998Z,15.30
2017-09-11T21:33:45.297Z,15.20
2017-09-11T21:36:12.860Z,15.30
2017-09-11T21:38:40.332Z,15.20
2017-09-11T21:41:08.579Z,15.10
2017-09-11T21:43:36.053Z,15.10
2017-09-11T21:46:04.303Z,15.20
2017-09-11T21:48:31.761Z,15.10
2017-09-11T21:50:59.328Z,15.10
2017-09-11T21:53:26.803Z,15.20
2017-09-11T21:55:54.351Z,15.20
2017-09-11T21:58:21.826Z,15.30
2017-09-11T22:00:50.065Z,15.40
2017-09-11T22:03:17.524Z,15.30
2017-09-11T22:05:46.540Z,15.20
2017-09-11T22:08:14.776Z,15.30
2017-09-11T22:10:42.241Z,15.30
2017-09-11T22:13:09.824Z,15.20
2017-09-11T22:15:38.067Z,15.20
2017-09-11T22:18:05.542Z,15.20
2017-09-11T22:20:33.012Z,15.30
2017-09-11T22:23:00.564Z,15.20
2017-09-11T22:25:28.025Z,15.20
2017-09-11T22:27:55.591Z,15.00
2017-09-11T22:30:23.857Z,14.90
2017-09-11T22:32:51.420Z,14.80
2017-09-11T22:35:19.649Z,14.90
2017-09-11T22:37:47.109Z,14.80
2017-09-11T22:40:14.617Z,14.80
2017-09-11T22:42:42.845Z,14.60
2017-09-11T22:45:10.330Z,14.60
2017-09-11T22:47:37.789Z,14.60
2017-09-11T22:50:05.262Z,14.70
2017-09-11T22:52:33.502Z,14.70
2017-09-11T22:55:00.969Z,14.60
2017-09-11T22:57:28.542Z,14.60
2017-09-11T22:59:56.783Z,14.70
2017-09-11T23:02:24.258Z,14.60
2017-09-11T23:04:51.792Z,14.70
2017-09-11T23:07:19.267Z,14.70
2017-09-11T23:09:46.724Z,14.70
2017-09-11T23:12:14.201Z,14.70
2017-09-11T23:14:41.756Z,14.70
2017-09-11T23:17:09.339Z,14.70
2017-09-11T23:19:37.608Z,14.60
2017-09-11T23:22:05.070Z,14.50
2017-09-11T23:24:33.333Z,14.50
2017-09-11T23:27:00.875Z,14.40
2017-09-11T23:29:28.333Z,14.50
2017-09-11T23:31:55.810Z,14.40
2017-09-11T23:34:24.037Z,14.40
2017-09-11T23:36:51.518Z,14.40
2017-09-11T23:39:18.996Z,14.50
2017-09-11T23:41:47.254Z,14.30
2017-09-11T23:44:14.708Z,14.30
2017-09-11T23:46:42.187Z,14.30
2017-09-11T23:49:10.409Z,14.40
2017-09-11T23:51:37.933Z,14.40
2017-09-11T23:54:05.382Z,14.40
2017-09-11T23:56:33.623Z,14.60
2017-09-11T23:59:01.101Z,14.50
